Darstellungsparameter: Aktuell verwendete Einstellungen:
Skalierung der Graphiken ... ?
xyx+y,   Skalierungsfaktor:      Skalierung: Modus: x, Faktor: 1
Darstellungszeitraum ... ?
Vom - - bis: - -   Zeitraum: 03.06.2011 - 09.06.2011
Min/Max/Avg-Anzeige ... ?
Zeige MMA aktuell
Zeige MMA Monat
Zeige MMA alles
Zeige --A aktuell
Zeige --A Monat
Zeige --A alles
Keine MMA-Anzeige
MMA:
Keine MMA-Graphiken
MMA-Basis: 03.06.2011 - 09.06.2011
Quicknavigation für Darstellung... ?
Tage:      1T, 2T, 3T, 5T -1T -2T -3T -5T +1T +2T +3T +5T
Wochen: 1W, 2W, 3W -1W -2W -3W +1W +2W +3W
Monate: 1M, 3M, 6M -1M -3M -6M +1M +3M +6M
Jahre:    1J, 3J, 5J, 10J -1J -3J -5J -10J +1J +3J +5J +10J
Nutze für die Darstellung ... ?
Originaldaten oder Mittelwerte auf ...
Stundenbasis Tagesbasis Wochenbasis
Monatsbasis Jahresbasis      Datenbasis: Original-Daten
Darstellen als:
Statistik (Auto) Statistik J:M      Darstellung:
Zur Graphik,    zurück zur Übersicht aller Sensoren.
 
Tabellarische Datenbersicht: ?
 
Sensor: Nr:Datum:Temp:Abs-Feuchte:Windchill:Wind:
Aussen-T/F 1 03-06-2011 00:03:03 16 C 5.59 g/m*3 16 C 0 km/h
2 03-06-2011 00:15:03 16 C 5.59 g/m*3 16 C 0 km/h
3 03-06-2011 00:27:03 16 C 5.59 g/m*3 16 C 0 km/h
4 03-06-2011 00:39:03 16 C 5.59 g/m*3 16 C 0 km/h
5 03-06-2011 00:51:03 16 C 5.59 g/m*3 16 C 0 km/h
6 03-06-2011 01:03:03 13.3 C 5.66 g/m*3 13.3 C 0 km/h
7 03-06-2011 01:15:03 13.2 C 5.63 g/m*3 13.2 C 0 km/h
8 03-06-2011 01:27:03 13.1 C 5.82 g/m*3 13.1 C 0 km/h
9 03-06-2011 01:39:03 12.9 C 5.97 g/m*3 12.9 C 0 km/h
10 03-06-2011 01:51:03 12.8 C 5.94 g/m*3 12.8 C 0 km/h
11 03-06-2011 02:03:03 12.8 C 5.71 g/m*3 12.8 C 0 km/h
12 03-06-2011 02:15:03 12.6 C 5.64 g/m*3 12.6 C 0 km/h
13 03-06-2011 02:27:03 12.4 C 5.68 g/m*3 12.4 C 0 km/h
14 03-06-2011 02:39:03 12.2 C 5.72 g/m*3 12.2 C 0 km/h
15 03-06-2011 02:51:03 11.9 C 5.82 g/m*3 11.9 C 0 km/h
16 03-06-2011 03:03:03 11.9 C 5.93 g/m*3 11.9 C 0 km/h
17 03-06-2011 03:15:03 11.7 C 5.96 g/m*3 11.7 C 0 km/h
18 03-06-2011 03:27:03 11.7 C 5.86 g/m*3 11.7 C 0 km/h
19 03-06-2011 03:39:04 11.6 C 5.72 g/m*3 11.6 C 0 km/h
20 03-06-2011 03:51:04 11.5 C 5.68 g/m*3 11.5 C 0 km/h
21 03-06-2011 04:03:04 11.6 C 5.72 g/m*3 11.6 C 0 km/h
22 03-06-2011 04:15:04 11.4 C 5.65 g/m*3 11.4 C 0 km/h
23 03-06-2011 04:27:04 11.3 C 5.71 g/m*3 11.3 C 0 km/h
24 03-06-2011 04:39:04 11.4 C 5.65 g/m*3 11.4 C 0 km/h
25 03-06-2011 04:51:04 11 C 5.51 g/m*3 11 C 0 km/h
Sensor: Nr:Datum:Temp:Abs-Feuchte:Windchill:Wind:
Aussen-T/F 26 03-06-2011 05:03:04 11 C 5.61 g/m*3 11 C 0 km/h
27 03-06-2011 05:15:04 11.2 C 5.68 g/m*3 11.2 C 0 km/h
28 03-06-2011 05:27:04 11.2 C 5.57 g/m*3 11.2 C 0 km/h
29 03-06-2011 05:39:04 11.5 C 5.78 g/m*3 11.5 C 0 km/h
30 03-06-2011 05:51:04 11.5 C 5.78 g/m*3 11.5 C 0 km/h
31 03-06-2011 06:03:04 11.7 C 5.96 g/m*3 11.7 C 0 km/h
32 03-06-2011 06:15:04 12.1 C 5.9 g/m*3 12.1 C 0 km/h
33 03-06-2011 06:27:04 12.5 C 6.38 g/m*3 12.5 C 0 km/h
34 03-06-2011 06:39:04 12.8 C 6.61 g/m*3 12.8 C 0 km/h
35 03-06-2011 06:51:04 12.9 C 6.42 g/m*3 12.9 C 0 km/h
36 03-06-2011 07:03:03 13.2 C 6.32 g/m*3 13.2 C 0 km/h
37 03-06-2011 07:15:01 13.6 C 6.36 g/m*3 13.6 C 0 km/h
38 03-06-2011 07:27:01 14.4 C 6.06 g/m*3 14.4 C 0 km/h
39 03-06-2011 07:39:02 14.9 C 6.37 g/m*3 14.9 C 0 km/h
40 03-06-2011 07:51:02 15 C 6.41 g/m*3 15 C 0 km/h
41 03-06-2011 08:03:03 15.1 C 6.58 g/m*3 15.1 C 0 km/h
42 03-06-2011 08:15:02 15.6 C 6.52 g/m*3 15.6 C 0 km/h
43 03-06-2011 08:27:02 16.2 C 6.21 g/m*3 16.2 C 0 km/h
44 03-06-2011 08:39:03 17 C 5.79 g/m*3 17 C 0 km/h
45 03-06-2011 08:51:02 17.7 C 6.04 g/m*3 17.7 C 0 km/h
46 03-06-2011 09:03:02 18.3 C 6.1 g/m*3 18.3 C 0 km/h
47 03-06-2011 09:15:02 18.6 C 5.89 g/m*3 18.6 C 0 km/h
48 03-06-2011 09:27:02 18.9 C 5.99 g/m*3 18.9 C 0 km/h
49 03-06-2011 09:39:02 19.5 C 5.87 g/m*3 19.5 C 0 km/h
50 03-06-2011 09:51:02 20.1 C 5.74 g/m*3 20.1 C 0 km/h
Sensor: Nr:Datum:Temp:Abs-Feuchte:Windchill:Wind:
Aussen-T/F 51 03-06-2011 10:03:03 20.7 C 5.94 g/m*3 20.7 C 0 km/h
52 03-06-2011 10:15:02 20.8 C 5.79 g/m*3 20.8 C 0 km/h
53 03-06-2011 10:27:02 21 C 5.86 g/m*3 21 C 0 km/h
54 03-06-2011 10:39:02 21 C 5.68 g/m*3 21 C 0 km/h
55 03-06-2011 10:51:01 21.9 C 5.79 g/m*3 21.9 C 0 km/h
56 03-06-2011 11:03:02 22.1 C 5.47 g/m*3 22.1 C 0 km/h
57 03-06-2011 11:15:02 21.9 C 5.79 g/m*3 21.9 C 0 km/h
58 03-06-2011 11:27:03 22.1 C 6.05 g/m*3 22.1 C 0 km/h
59 03-06-2011 11:39:01 22.9 C 5.72 g/m*3 22.9 C 0 km/h
60 03-06-2011 11:51:01 23 C 5.55 g/m*3 23 C 0 km/h
61 03-06-2011 12:03:02 23 C 5.34 g/m*3 23 C 0 km/h
62 03-06-2011 12:15:01 23.2 C 5.2 g/m*3 23.2 C 0 km/h
63 03-06-2011 12:27:01 23.7 C 5.78 g/m*3 23.7 C 0 km/h
64 03-06-2011 12:39:02 24.8 C 5.69 g/m*3 24.8 C 0 km/h
65 03-06-2011 12:51:02 25.1 C 5.79 g/m*3 25.1 C 0 km/h
66 03-06-2011 13:03:02 25.4 C 5.41 g/m*3 25.4 C 0 km/h
67 03-06-2011 13:15:02 26.1 C 5.39 g/m*3 26.1 C 0 km/h
68 03-06-2011 13:27:02 25.5 C 5.45 g/m*3 25.5 C 0 km/h
69 03-06-2011 13:39:02 26.3 C 5.69 g/m*3 26.3 C 0 km/h
70 03-06-2011 13:51:02 28.9 C 5.71 g/m*3 28.9 C 0 km/h
71 03-06-2011 14:03:02 27.5 C 5.82 g/m*3 27.5 C 0 km/h
72 03-06-2011 14:15:02 29.4 C 5.87 g/m*3 29.4 C 0 km/h
73 03-06-2011 14:27:02 29.6 C 5.94 g/m*3 29.6 C 0 km/h
74 03-06-2011 14:39:02 25.5 C 5.68 g/m*3 25.5 C 0 km/h
75 03-06-2011 14:51:02 25.4 C 6.12 g/m*3 25.4 C 0 km/h
Sensor: Nr:Datum:Temp:Abs-Feuchte:Windchill:Wind:
Aussen-T/F 76 03-06-2011 15:03:02 28.5 C 6.15 g/m*3 28.5 C 0 km/h
77 03-06-2011 15:15:03 30.2 C 6.13 g/m*3 30.2 C 0 km/h
78 03-06-2011 15:27:03 31 C 6.4 g/m*3 31 C 0 km/h
79 03-06-2011 15:39:02 31.5 C 6.57 g/m*3 31.5 C 0 km/h
80 03-06-2011 15:51:02 31.4 C 6.54 g/m*3 31.4 C 0 km/h
81 03-06-2011 16:03:01 30 C 6.06 g/m*3 30 C 0 km/h
82 03-06-2011 16:15:02 31.1 C 6.43 g/m*3 31.1 C 0 km/h
83 03-06-2011 16:27:02 31.4 C 6.54 g/m*3 31.4 C 0 km/h
84 03-06-2011 16:39:02 31.9 C 6.72 g/m*3 31.9 C 0 km/h
85 03-06-2011 16:51:02 30.9 C 6.37 g/m*3 30.9 C 0 km/h
86 03-06-2011 17:03:03 31.6 C 6.61 g/m*3 31.6 C 0 km/h
87 03-06-2011 17:15:02 31.2 C 6.47 g/m*3 31.2 C 0 km/h
88 03-06-2011 17:27:02 31.5 C 6.57 g/m*3 31.5 C 0 km/h
89 03-06-2011 17:39:02 31.6 C 6.61 g/m*3 31.6 C 0 km/h
90 03-06-2011 17:51:02 31.4 C 6.54 g/m*3 31.4 C 0 km/h
91 03-06-2011 18:03:02 30.5 C 6.23 g/m*3 30.5 C 0 km/h
92 03-06-2011 18:15:01 30.8 C 6.33 g/m*3 30.8 C 0 km/h
93 03-06-2011 18:27:01 29.4 C 5.87 g/m*3 29.4 C 0 km/h
94 03-06-2011 18:39:02 30 C 6.06 g/m*3 30 C 0 km/h
95 03-06-2011 18:51:01 30.6 C 6.26 g/m*3 30.6 C 0 km/h
96 03-06-2011 19:03:02 30.4 C 6.2 g/m*3 30.4 C 0 km/h
97 03-06-2011 19:15:01 29.4 C 5.87 g/m*3 29.4 C 0 km/h
98 03-06-2011 19:27:01 29.8 C 6.3 g/m*3 29.8 C 0 km/h
99 03-06-2011 19:39:02 27.4 C 6.31 g/m*3 27.4 C 0 km/h
100 03-06-2011 19:51:01 26.3 C 6.44 g/m*3 26.3 C 0 km/h
Sensor: Nr:Datum:Temp:Abs-Feuchte:Windchill:Wind:
Aussen-T/F 101 03-06-2011 20:03:02 25.3 C 6.79 g/m*3 25.3 C 0 km/h
102 03-06-2011 20:15:02 25.2 C 6.75 g/m*3 25.2 C 0 km/h
103 03-06-2011 20:27:02 24.6 C 7.88 g/m*3 24.6 C 0 km/h
104 03-06-2011 20:39:02 24 C 7.4 g/m*3 24 C 0 km/h
105 03-06-2011 20:51:02 23.7 C 7.49 g/m*3 23.7 C 0 km/h
106 03-06-2011 21:03:02 22.9 C 7.77 g/m*3 22.9 C 0 km/h
107 03-06-2011 21:15:02 22.3 C 7.31 g/m*3 22.3 C 0 km/h
108 03-06-2011 21:27:02 21.4 C 7.87 g/m*3 21.4 C 0 km/h
109 03-06-2011 21:39:03 20.8 C 7.97 g/m*3 20.8 C 0 km/h
110 03-06-2011 21:51:02 20.3 C 7.91 g/m*3 20.3 C 0 km/h
111 03-06-2011 22:03:02 20.7 C 7.74 g/m*3 20.7 C 0 km/h
112 03-06-2011 22:15:02 19.9 C 8.08 g/m*3 19.9 C 0 km/h
113 03-06-2011 22:27:03 20 C 8.12 g/m*3 20 C 0 km/h
114 03-06-2011 22:39:02 19.8 C 8.03 g/m*3 19.8 C 0 km/h
115 03-06-2011 22:52:06 19.6 C 7.93 g/m*3 19.6 C 0 km/h
116 03-06-2011 23:04:06 19.5 C 8.22 g/m*3 19.5 C 0 km/h
117 03-06-2011 23:16:06 19 C 8.15 g/m*3 19 C 0 km/h
118 03-06-2011 23:28:06 18.4 C 8.49 g/m*3 18.4 C 0 km/h
119 03-06-2011 23:40:06 18 C 8.45 g/m*3 18 C 0 km/h
120 03-06-2011 23:52:06 17.9 C 8.55 g/m*3 17.9 C 0 km/h
121 04-06-2011 00:04:06 17.7 C 8.45 g/m*3 17.7 C 0 km/h
122 04-06-2011 00:16:06 17.3 C 8.4 g/m*3 17.3 C 0 km/h
123 04-06-2011 00:28:06 17.4 C 8.6 g/m*3 17.4 C 0 km/h
124 04-06-2011 00:40:06 17.4 C 8.45 g/m*3 17.4 C 0 km/h
125 04-06-2011 00:52:06 17.4 C 8.74 g/m*3 17.4 C 0 km/h
Sensor: Nr:Datum:Temp:Abs-Feuchte:Windchill:Wind:
Aussen-T/F 126 04-06-2011 01:04:06 17 C 8.39 g/m*3 17 C 0 km/h
127 04-06-2011 01:16:06 17.1 C 8.73 g/m*3 17.1 C 0 km/h
128 04-06-2011 01:28:06 17.1 C 8.59 g/m*3 17.1 C 0 km/h
129 04-06-2011 01:40:06 16.8 C 8.58 g/m*3 16.8 C 0 km/h
130 04-06-2011 01:52:07 16.8 C 8.58 g/m*3 16.8 C 0 km/h
131 04-06-2011 02:04:07 16.4 C 8.37 g/m*3 16.4 C 0 km/h
132 04-06-2011 02:16:07 16.3 C 8.46 g/m*3 16.3 C 0 km/h
133 04-06-2011 02:28:07 16 C 8.58 g/m*3 16 C 0 km/h
134 04-06-2011 02:40:07 16 C 8.45 g/m*3 16 C 0 km/h
135 04-06-2011 02:52:07 15.9 C 8.53 g/m*3 15.9 C 0 km/h
136 04-06-2011 03:04:07 15.8 C 8.48 g/m*3 15.8 C 0 km/h
137 04-06-2011 03:16:07 15.8 C 8.62 g/m*3 15.8 C 0 km/h
138 04-06-2011 03:28:07 15.6 C 8.51 g/m*3 15.6 C 0 km/h
139 04-06-2011 03:40:07 15.6 C 8.51 g/m*3 15.6 C 0 km/h
140 04-06-2011 03:52:07 15.4 C 8.41 g/m*3 15.4 C 0 km/h
141 04-06-2011 04:04:07 15.3 C 8.36 g/m*3 15.3 C 0 km/h
142 04-06-2011 04:16:07 15.2 C 8.31 g/m*3 15.2 C 0 km/h
143 04-06-2011 04:28:07 15 C 8.33 g/m*3 15 C 0 km/h
144 04-06-2011 04:40:07 14.9 C 8.54 g/m*3 14.9 C 0 km/h
145 04-06-2011 04:52:07 15 C 8.33 g/m*3 15 C 0 km/h
146 04-06-2011 05:04:07 14.9 C 8.41 g/m*3 14.9 C 0 km/h
147 04-06-2011 05:16:07 14.7 C 8.31 g/m*3 14.7 C 0 km/h
148 04-06-2011 05:28:07 14.8 C 8.49 g/m*3 14.8 C 0 km/h
149 04-06-2011 05:40:07 15 C 8.33 g/m*3 15 C 0 km/h
150 04-06-2011 05:52:08 14.8 C 8.36 g/m*3 14.8 C 0 km/h
Sensor: Nr:Datum:Temp:Abs-Feuchte:Windchill:Wind:
Aussen-T/F 151 04-06-2011 06:04:08 15 C 8.46 g/m*3 15 C 0 km/h
152 04-06-2011 06:16:08 15 C 8.59 g/m*3 15 C 0 km/h
153 04-06-2011 06:28:08 15.2 C 8.7 g/m*3 15.2 C 0 km/h
154 04-06-2011 06:40:08 15.7 C 8.83 g/m*3 15.7 C 0 km/h
155 04-06-2011 06:52:08 16 C 8.86 g/m*3 16 C 0 km/h
156 04-06-2011 07:04:08 16.7 C 9.1 g/m*3 16.7 C 0 km/h
157 04-06-2011 07:16:08 17.4 C 9.04 g/m*3 17.4 C 0 km/h
158 04-06-2011 07:28:08 18.1 C 9.12 g/m*3 18.1 C 0 km/h
159 04-06-2011 07:40:08 18.6 C 9.39 g/m*3 18.6 C 0 km/h
160 04-06-2011 07:52:08 18.6 C 9.39 g/m*3 18.6 C 0 km/h
161 04-06-2011 08:04:08 18.5 C 9.18 g/m*3 18.5 C 0 km/h
162 04-06-2011 08:16:08 18.4 C 9.28 g/m*3 18.4 C 0 km/h
163 04-06-2011 08:28:08 18.3 C 9.54 g/m*3 18.3 C 0 km/h
164 04-06-2011 08:40:08 19 C 9.45 g/m*3 19 C 0 km/h
165 04-06-2011 08:52:02 20 C 9.51 g/m*3 20 C 0 km/h
166 04-06-2011 09:04:02 20.3 C 9.67 g/m*3 20.3 C 0 km/h
167 04-06-2011 09:16:02 20.8 C 9.96 g/m*3 20.8 C 0 km/h
168 04-06-2011 09:28:02 21.9 C 9.26 g/m*3 21.9 C 0 km/h
169 04-06-2011 09:40:02 22.6 C 9.24 g/m*3 22.6 C 0 km/h
170 04-06-2011 09:52:02 22.6 C 8.84 g/m*3 22.6 C 0 km/h
171 04-06-2011 10:04:02 22.9 C 9.4 g/m*3 22.9 C 0 km/h
172 04-06-2011 10:16:01 23.5 C 8.88 g/m*3 23.5 C 0 km/h
173 04-06-2011 10:28:01 24 C 8.49 g/m*3 24 C 0 km/h
174 04-06-2011 10:40:02 24 C 9.14 g/m*3 24 C 0 km/h
175 04-06-2011 10:52:03 24.4 C 8.23 g/m*3 24.4 C 0 km/h
Sensor: Nr:Datum:Temp:Abs-Feuchte:Windchill:Wind:
Aussen-T/F 176 04-06-2011 11:04:02 25 C 8.75 g/m*3 25 C 0 km/h
177 04-06-2011 11:16:02 25.3 C 8.43 g/m*3 25.3 C 0 km/h
178 04-06-2011 11:28:02 25.8 C 8.67 g/m*3 25.8 C 0 km/h
179 04-06-2011 11:40:03 26.2 C 8.37 g/m*3 26.2 C 0 km/h
180 04-06-2011 11:52:02 27 C 7.98 g/m*3 27 C 0 km/h
181 04-06-2011 12:04:02 27.4 C 7.89 g/m*3 27.4 C 0 km/h
182 04-06-2011 12:16:02 27.3 C 7.85 g/m*3 27.3 C 0 km/h
183 04-06-2011 12:28:02 27.3 C 7.85 g/m*3 27.3 C 0 km/h
184 04-06-2011 12:40:02 27.4 C 8.16 g/m*3 27.4 C 0 km/h
185 04-06-2011 12:52:02 27.8 C 8.07 g/m*3 27.8 C 0 km/h
186 04-06-2011 13:04:02 28.1 C 7.66 g/m*3 28.1 C 0 km/h
187 04-06-2011 13:16:02 28.7 C 7.91 g/m*3 28.7 C 0 km/h
188 04-06-2011 13:28:02 31.3 C 7.15 g/m*3 31.3 C 0 km/h
189 04-06-2011 13:40:02 32 C 6.75 g/m*3 32 C 0 km/h
190 04-06-2011 13:52:02 32.9 C 7.08 g/m*3 32.9 C 0 km/h
191 04-06-2011 14:04:02 33.2 C 7.2 g/m*3 33.2 C 0 km/h
192 04-06-2011 14:16:02 31.8 C 6.68 g/m*3 31.8 C 0 km/h
193 04-06-2011 14:28:02 33.2 C 7.2 g/m*3 33.2 C 0 km/h
194 04-06-2011 14:40:02 33 C 7.12 g/m*3 33 C 0 km/h
195 04-06-2011 14:52:02 32.3 C 6.86 g/m*3 32.3 C 0 km/h
196 04-06-2011 15:04:02 31.2 C 7.12 g/m*3 31.2 C 0 km/h
197 04-06-2011 15:16:02 32.6 C 6.97 g/m*3 32.6 C 0 km/h
198 04-06-2011 15:28:03 30.6 C 7.2 g/m*3 30.6 C 0 km/h
199 04-06-2011 15:40:01 30.4 C 8.06 g/m*3 30.4 C 0 km/h
200 04-06-2011 15:52:02 30.1 C 7.93 g/m*3 30.1 C 0 km/h
Sensor: Nr:Datum:Temp:Abs-Feuchte:Windchill:Wind:
Aussen-T/F 201 04-06-2011 16:04:01 30.2 C 7.97 g/m*3 30.2 C 0 km/h
202 04-06-2011 16:16:02 30.4 C 7.75 g/m*3 30.4 C 0 km/h
203 04-06-2011 16:28:02 26.5 C 7.01 g/m*3 26.5 C 0 km/h
204 04-06-2011 16:40:01 21.6 C 12.14 g/m*3 21.6 C 0 km/h
205 04-06-2011 16:52:02 20.7 C 13.14 g/m*3 20.7 C 0 km/h
206 04-06-2011 17:04:02 20.8 C 13.4 g/m*3 20.8 C 0 km/h
207 04-06-2011 17:16:02 23.6 C 14.25 g/m*3 23.6 C 0 km/h
208 04-06-2011 17:28:02 24.8 C 13.88 g/m*3 24.8 C 0 km/h
209 04-06-2011 17:40:02 24.6 C 13.73 g/m*3 24.6 C 0 km/h
210 04-06-2011 17:52:02 23.1 C 13.23 g/m*3 23.1 C 0 km/h
211 04-06-2011 18:04:02 22.6 C 13.86 g/m*3 22.6 C 0 km/h
212 04-06-2011 18:16:02 22.1 C 13.66 g/m*3 22.1 C 0 km/h
213 04-06-2011 18:28:02 21.4 C 13.5 g/m*3 21.4 C 0 km/h
214 04-06-2011 18:40:01 20.4 C 13.09 g/m*3 20.4 C 0 km/h
215 04-06-2011 18:52:02 20.1 C 13.04 g/m*3 20.1 C 0 km/h
216 04-06-2011 19:04:01 20.3 C 13.37 g/m*3 20.3 C 0 km/h
217 04-06-2011 19:16:01 20.9 C 13.48 g/m*3 20.9 C 0 km/h
218 04-06-2011 19:28:01 20.9 C 13.11 g/m*3 20.9 C 0 km/h
219 04-06-2011 19:40:02 20.6 C 12.89 g/m*3 20.6 C 0 km/h
220 04-06-2011 19:52:02 20.4 C 12.56 g/m*3 20.4 C 0 km/h
221 04-06-2011 20:04:02 20.5 C 12.46 g/m*3 20.5 C 0 km/h
222 04-06-2011 20:16:02 20.5 C 12.28 g/m*3 20.5 C 0 km/h
223 04-06-2011 20:28:02 20.4 C 12.38 g/m*3 20.4 C 0 km/h
224 04-06-2011 20:40:02 20.4 C 12.38 g/m*3 20.4 C 0 km/h
225 04-06-2011 20:52:02 20.3 C 12.49 g/m*3 20.3 C 0 km/h
Sensor: Nr:Datum:Temp:Abs-Feuchte:Windchill:Wind:
Aussen-T/F 226 04-06-2011 21:04:02 20 C 12.27 g/m*3 20 C 0 km/h
227 04-06-2011 21:16:02 19.5 C 12.75 g/m*3 19.5 C 0 km/h
228 04-06-2011 21:28:02 19.4 C 12.68 g/m*3 19.4 C 0 km/h
229 04-06-2011 21:40:02 19.6 C 12.32 g/m*3 19.6 C 0 km/h
230 04-06-2011 21:52:01 19.4 C 12.35 g/m*3 19.4 C 0 km/h
231 04-06-2011 22:04:01 19.4 C 12.01 g/m*3 19.4 C 0 km/h
232 04-06-2011 22:17:02 18.8 C 12.88 g/m*3 18.8 C 0 km/h
233 04-06-2011 22:29:02 18.4 C 12.9 g/m*3 18.4 C 0 km/h
234 04-06-2011 22:41:02 18.1 C 12.82 g/m*3 18.1 C 0 km/h
235 04-06-2011 22:53:03 18.1 C 12.98 g/m*3 18.1 C 0 km/h
236 04-06-2011 23:05:03 18 C 13.06 g/m*3 18 C 0 km/h
237 04-06-2011 23:17:03 18.1 C 13.13 g/m*3 18.1 C 0 km/h
238 04-06-2011 23:29:03 18 C 13.21 g/m*3 18 C 0 km/h
239 04-06-2011 23:41:03 17.9 C 13.28 g/m*3 17.9 C 0 km/h
240 04-06-2011 23:53:03 17.9 C 13.44 g/m*3 17.9 C 0 km/h
241 05-06-2011 00:05:03 17.9 C 13.44 g/m*3 17.9 C 0 km/h
242 05-06-2011 00:17:03 17.9 C 13.44 g/m*3 17.9 C 0 km/h
243 05-06-2011 00:29:03 17.7 C 13.28 g/m*3 17.7 C 0 km/h
244 05-06-2011 00:41:03 17.8 C 13.36 g/m*3 17.8 C 0 km/h
245 05-06-2011 00:53:03 17.7 C 13.28 g/m*3 17.7 C 0 km/h
246 05-06-2011 01:05:03 17.6 C 13.2 g/m*3 17.6 C 0 km/h
247 05-06-2011 01:17:03 17.4 C 13.04 g/m*3 17.4 C 0 km/h
248 05-06-2011 01:29:03 17.5 C 13.12 g/m*3 17.5 C 0 km/h
249 05-06-2011 01:41:03 17.2 C 12.89 g/m*3 17.2 C 0 km/h
250 05-06-2011 01:53:03 17 C 12.73 g/m*3 17 C 0 km/h
Sensor: Nr:Datum:Temp:Abs-Feuchte:Windchill:Wind:
Aussen-T/F 251 05-06-2011 02:05:03 16.9 C 12.8 g/m*3 16.9 C 0 km/h
252 05-06-2011 02:17:03 16.7 C 12.65 g/m*3 16.7 C 0 km/h
253 05-06-2011 02:29:03 16.5 C 12.5 g/m*3 16.5 C 0 km/h
254 05-06-2011 02:41:03 16.3 C 12.35 g/m*3 16.3 C 0 km/h
255 05-06-2011 02:53:04 16.4 C 12.42 g/m*3 16.4 C 0 km/h
256 05-06-2011 03:05:04 16.1 C 12.2 g/m*3 16.1 C 0 km/h
257 05-06-2011 03:17:04 16 C 12.13 g/m*3 16 C 0 km/h
258 05-06-2011 03:29:04 15.7 C 11.91 g/m*3 15.7 C 0 km/h
259 05-06-2011 03:41:04 15.7 C 11.91 g/m*3 15.7 C 0 km/h
260 05-06-2011 03:53:04 15.4 C 11.69 g/m*3 15.4 C 0 km/h
261 05-06-2011 04:05:04 15.5 C 11.76 g/m*3 15.5 C 0 km/h
262 05-06-2011 04:17:04 15.5 C 11.76 g/m*3 15.5 C 0 km/h
263 05-06-2011 04:29:04 15.7 C 11.91 g/m*3 15.7 C 0 km/h
264 05-06-2011 04:41:04 15.1 C 11.48 g/m*3 15.1 C 0 km/h
265 05-06-2011 04:53:04 15.1 C 11.48 g/m*3 15.1 C 0 km/h
266 05-06-2011 05:05:04 15.2 C 11.55 g/m*3 15.2 C 0 km/h
267 05-06-2011 05:17:04 15.3 C 11.75 g/m*3 15.3 C 0 km/h
268 05-06-2011 05:29:04 15 C 11.54 g/m*3 15 C 0 km/h
269 05-06-2011 05:41:04 15.2 C 11.68 g/m*3 15.2 C 0 km/h
270 05-06-2011 05:53:04 15.6 C 11.97 g/m*3 15.6 C 0 km/h
271 05-06-2011 06:05:04 15.8 C 12.11 g/m*3 15.8 C 0 km/h
272 05-06-2011 06:17:04 16.1 C 12.2 g/m*3 16.1 C 0 km/h
273 05-06-2011 06:29:04 16.2 C 12.41 g/m*3 16.2 C 0 km/h
274 05-06-2011 06:41:04 16.4 C 12.56 g/m*3 16.4 C 0 km/h
275 05-06-2011 06:53:04 16.3 C 12.49 g/m*3 16.3 C 0 km/h
Sensor: Nr:Datum:Temp:Abs-Feuchte:Windchill:Wind:
Aussen-T/F 276 05-06-2011 07:05:05 16.3 C 12.49 g/m*3 16.3 C 0 km/h
277 05-06-2011 07:17:05 16.4 C 12.56 g/m*3 16.4 C 0 km/h
278 05-06-2011 07:29:05 16.5 C 12.5 g/m*3 16.5 C 0 km/h
279 05-06-2011 07:41:05 16.7 C 12.79 g/m*3 16.7 C 0 km/h
280 05-06-2011 07:53:05 17.4 C 13.19 g/m*3 17.4 C 0 km/h
281 05-06-2011 08:05:02 17.9 C 13.59 g/m*3 17.9 C 0 km/h
282 05-06-2011 08:17:02 18 C 13.52 g/m*3 18 C 0 km/h
283 05-06-2011 08:29:02 18.4 C 13.68 g/m*3 18.4 C 0 km/h
284 05-06-2011 08:41:02 18.5 C 13.61 g/m*3 18.5 C 0 km/h
285 05-06-2011 08:53:02 18.7 C 13.45 g/m*3 18.7 C 0 km/h
286 05-06-2011 09:05:01 18.6 C 12.73 g/m*3 18.6 C 0 km/h
287 05-06-2011 09:17:02 19.5 C 12.59 g/m*3 19.5 C 0 km/h
288 05-06-2011 09:29:02 19.9 C 12.54 g/m*3 19.9 C 0 km/h
289 05-06-2011 09:41:02 19.5 C 12.25 g/m*3 19.5 C 0 km/h
290 05-06-2011 09:53:01 19.5 C 12.42 g/m*3 19.5 C 0 km/h
291 05-06-2011 10:05:02 19.9 C 13.4 g/m*3 19.9 C 0 km/h
292 05-06-2011 10:17:02 20.2 C 13.46 g/m*3 20.2 C 0 km/h
293 05-06-2011 10:29:02 20.6 C 13.42 g/m*3 20.6 C 0 km/h
294 05-06-2011 10:41:01 21.8 C 14.01 g/m*3 21.8 C 0 km/h
295 05-06-2011 10:53:02 21.7 C 12.97 g/m*3 21.7 C 0 km/h
296 05-06-2011 11:05:01 21.7 C 12.97 g/m*3 21.7 C 0 km/h
297 05-06-2011 11:17:01 21.7 C 12.59 g/m*3 21.7 C 0 km/h
298 05-06-2011 11:29:02 22.2 C 12.96 g/m*3 22.2 C 0 km/h
299 05-06-2011 11:41:01 22.4 C 13.31 g/m*3 22.4 C 0 km/h
300 05-06-2011 11:53:02 23.2 C 13.1 g/m*3 23.2 C 0 km/h
Sensor: Nr:Datum:Temp:Abs-Feuchte:Windchill:Wind:
Aussen-T/F 301 05-06-2011 12:05:02 23.7 C 12.62 g/m*3 23.7 C 0 km/h
302 05-06-2011 12:17:02 24.1 C 12.25 g/m*3 24.1 C 0 km/h
303 05-06-2011 12:29:02 23.7 C 13.9 g/m*3 23.7 C 0 km/h
304 05-06-2011 12:41:02 24.4 C 14.02 g/m*3 24.4 C 0 km/h
305 05-06-2011 12:53:01 24.8 C 13.2 g/m*3 24.8 C 0 km/h
306 05-06-2011 13:05:02 25.3 C 14.05 g/m*3 25.3 C 0 km/h
307 05-06-2011 13:17:01 24.9 C 13.73 g/m*3 24.9 C 0 km/h
308 05-06-2011 13:29:01 24.8 C 13.88 g/m*3 24.8 C 0 km/h
309 05-06-2011 13:41:02 25 C 13.81 g/m*3 25 C 0 km/h
310 05-06-2011 13:53:02 25.6 C 15 g/m*3 25.6 C 0 km/h
311 05-06-2011 14:05:02 25.3 C 14.05 g/m*3 25.3 C 0 km/h
312 05-06-2011 14:17:01 24.7 C 15.16 g/m*3 24.7 C 0 km/h
313 05-06-2011 14:29:01 24.4 C 15.58 g/m*3 24.4 C 0 km/h
314 05-06-2011 14:41:02 27.5 C 14.55 g/m*3 27.5 C 0 km/h
315 05-06-2011 14:53:02 28.1 C 11.76 g/m*3 28.1 C 0 km/h
316 05-06-2011 15:05:02 27.7 C 13.91 g/m*3 27.7 C 0 km/h
317 05-06-2011 15:17:01 25.3 C 12.88 g/m*3 25.3 C 0 km/h
318 05-06-2011 15:29:01 23.7 C 14.33 g/m*3 23.7 C 0 km/h
319 05-06-2011 15:41:16 21.9 C 14.67 g/m*3 21.9 C 0 km/h
320 05-06-2011 15:53:16 21.1 C 14.56 g/m*3 21.1 C 0 km/h
321 05-06-2011 16:05:16 19.5 C 13.43 g/m*3 19.5 C 0 km/h
322 05-06-2011 16:17:16 17.4 C 12 g/m*3 17.4 C 0 km/h
323 05-06-2011 16:29:16 17.3 C 12.23 g/m*3 17.3 C 0 km/h
324 05-06-2011 16:41:16 17.6 C 12.6 g/m*3 17.6 C 0 km/h
325 05-06-2011 16:53:16 17.3 C 12.37 g/m*3 17.3 C 0 km/h
Sensor: Nr:Datum:Temp:Abs-Feuchte:Windchill:Wind:
Aussen-T/F 326 05-06-2011 17:05:02 17.4 C 12.6 g/m*3 17.4 C 0 km/h
327 05-06-2011 17:17:02 17.5 C 12.82 g/m*3 17.5 C 0 km/h
328 05-06-2011 17:29:02 17.7 C 12.98 g/m*3 17.7 C 0 km/h
329 05-06-2011 17:41:02 17.2 C 12.59 g/m*3 17.2 C 0 km/h
330 05-06-2011 17:53:02 17.2 C 12.59 g/m*3 17.2 C 0 km/h
331 05-06-2011 18:05:01 17.2 C 12.59 g/m*3 17.2 C 0 km/h
332 05-06-2011 18:17:02 16.9 C 12.51 g/m*3 16.9 C 0 km/h
333 05-06-2011 18:29:02 16.9 C 12.51 g/m*3 16.9 C 0 km/h
334 05-06-2011 18:41:02 16.8 C 12.44 g/m*3 16.8 C 0 km/h
335 05-06-2011 18:53:02 16.8 C 12.58 g/m*3 16.8 C 0 km/h
336 05-06-2011 19:05:03 17 C 12.59 g/m*3 17 C 0 km/h
337 05-06-2011 19:17:02 17.2 C 12.74 g/m*3 17.2 C 0 km/h
338 05-06-2011 19:29:02 17.4 C 13.04 g/m*3 17.4 C 0 km/h
339 05-06-2011 19:41:02 17.7 C 13.28 g/m*3 17.7 C 0 km/h
340 05-06-2011 19:53:01 17.8 C 13.36 g/m*3 17.8 C 0 km/h
341 05-06-2011 20:05:02 17.8 C 13.2 g/m*3 17.8 C 0 km/h
342 05-06-2011 20:17:01 17.8 C 13.2 g/m*3 17.8 C 0 km/h
343 05-06-2011 20:29:01 17.6 C 13.05 g/m*3 17.6 C 0 km/h
344 05-06-2011 20:41:02 17.3 C 12.82 g/m*3 17.3 C 0 km/h
345 05-06-2011 20:53:01 17.3 C 12.82 g/m*3 17.3 C 0 km/h
346 05-06-2011 21:05:02 17.2 C 12.74 g/m*3 17.2 C 0 km/h
347 05-06-2011 21:17:01 17 C 12.59 g/m*3 17 C 0 km/h
348 05-06-2011 21:29:01 16.8 C 12.58 g/m*3 16.8 C 0 km/h
349 05-06-2011 21:41:02 16.7 C 12.51 g/m*3 16.7 C 0 km/h
350 05-06-2011 21:53:01 16.7 C 12.65 g/m*3 16.7 C 0 km/h
Sensor: Nr:Datum:Temp:Abs-Feuchte:Windchill:Wind:
Aussen-T/F 351 05-06-2011 22:05:01 16.7 C 12.65 g/m*3 16.7 C 0 km/h
352 05-06-2011 22:17:02 16.8 C 12.72 g/m*3 16.8 C 0 km/h
353 05-06-2011 22:29:02 16.8 C 12.72 g/m*3 16.8 C 0 km/h
354 05-06-2011 22:41:01 16.4 C 12.42 g/m*3 16.4 C 0 km/h
355 05-06-2011 22:53:03 16.2 C 12.27 g/m*3 16.2 C 0 km/h
356 05-06-2011 23:06:05 16.1 C 12.2 g/m*3 16.1 C 0 km/h
357 05-06-2011 23:18:05 16 C 12.13 g/m*3 16 C 0 km/h
358 05-06-2011 23:30:05 15.9 C 12.05 g/m*3 15.9 C 0 km/h
359 05-06-2011 23:42:05 15.5 C 11.76 g/m*3 15.5 C 0 km/h
360 05-06-2011 23:54:05 15 C 11.41 g/m*3 15 C 0 km/h
361 06-06-2011 00:06:05 15.3 C 11.62 g/m*3 15.3 C 0 km/h
362 06-06-2011 00:18:05 15.3 C 11.75 g/m*3 15.3 C 0 km/h
363 06-06-2011 00:30:06 14.9 C 11.47 g/m*3 14.9 C 0 km/h
364 06-06-2011 00:42:06 15 C 11.41 g/m*3 15 C 0 km/h
365 06-06-2011 00:54:06 15 C 11.54 g/m*3 15 C 0 km/h
366 06-06-2011 01:06:06 15.1 C 11.61 g/m*3 15.1 C 0 km/h
367 06-06-2011 01:18:06 15.1 C 11.61 g/m*3 15.1 C 0 km/h
368 06-06-2011 01:30:06 14.9 C 11.6 g/m*3 14.9 C 0 km/h
369 06-06-2011 01:42:06 15 C 11.54 g/m*3 15 C 0 km/h
370 06-06-2011 01:54:06 15 C 11.54 g/m*3 15 C 0 km/h
371 06-06-2011 02:06:06 15.1 C 11.61 g/m*3 15.1 C 0 km/h
372 06-06-2011 02:18:06 15.1 C 11.61 g/m*3 15.1 C 0 km/h
373 06-06-2011 02:30:06 15.1 C 11.61 g/m*3 15.1 C 0 km/h
374 06-06-2011 02:42:06 15 C 11.54 g/m*3 15 C 0 km/h
375 06-06-2011 02:54:06 15 C 11.54 g/m*3 15 C 0 km/h
Sensor: Nr:Datum:Temp:Abs-Feuchte:Windchill:Wind:
Aussen-T/F 376 06-06-2011 03:06:06 15.1 C 11.61 g/m*3 15.1 C 0 km/h
377 06-06-2011 03:18:06 14.9 C 11.6 g/m*3 14.9 C 0 km/h
378 06-06-2011 03:30:06 15 C 11.54 g/m*3 15 C 0 km/h
379 06-06-2011 03:42:06 14.5 C 11.32 g/m*3 14.5 C 0 km/h
380 06-06-2011 03:54:06 14.4 C 11.25 g/m*3 14.4 C 0 km/h
381 06-06-2011 04:06:06 14.4 C 11.25 g/m*3 14.4 C 0 km/h
382 06-06-2011 04:18:06 13.8 C 10.84 g/m*3 13.8 C 0 km/h
383 06-06-2011 04:30:06 14 C 10.98 g/m*3 14 C 0 km/h
384 06-06-2011 04:42:07 14 C 10.98 g/m*3 14 C 0 km/h
385 06-06-2011 04:54:07 13.7 C 10.78 g/m*3 13.7 C 0 km/h
386 06-06-2011 05:06:07 14 C 10.98 g/m*3 14 C 0 km/h
387 06-06-2011 05:18:07 13.6 C 10.71 g/m*3 13.6 C 0 km/h
388 06-06-2011 05:30:07 13.6 C 10.71 g/m*3 13.6 C 0 km/h
389 06-06-2011 05:42:07 13.5 C 10.64 g/m*3 13.5 C 0 km/h
390 06-06-2011 05:54:07 13.7 C 10.78 g/m*3 13.7 C 0 km/h
391 06-06-2011 06:06:07 13.7 C 10.78 g/m*3 13.7 C 0 km/h
392 06-06-2011 06:18:07 14 C 10.98 g/m*3 14 C 0 km/h
393 06-06-2011 06:30:07 14.2 C 11.11 g/m*3 14.2 C 0 km/h
394 06-06-2011 06:42:07 14.4 C 11.25 g/m*3 14.4 C 0 km/h
395 06-06-2011 06:54:07 14.8 C 11.53 g/m*3 14.8 C 0 km/h
396 06-06-2011 07:06:07 14.9 C 11.6 g/m*3 14.9 C 0 km/h
397 06-06-2011 07:18:04 15.2 C 11.68 g/m*3 15.2 C 0 km/h
398 06-06-2011 07:30:04 15.4 C 11.82 g/m*3 15.4 C 0 km/h
399 06-06-2011 07:42:04 15.5 C 11.9 g/m*3 15.5 C 0 km/h
400 06-06-2011 07:54:03 15.7 C 12.04 g/m*3 15.7 C 0 km/h
Sensor: Nr:Datum:Temp:Abs-Feuchte:Windchill:Wind:
Aussen-T/F 401 06-06-2011 08:06:02 16.1 C 12.34 g/m*3 16.1 C 0 km/h
402 06-06-2011 08:18:02 16.8 C 12.87 g/m*3 16.8 C 0 km/h
403 06-06-2011 08:30:02 17 C 12.88 g/m*3 17 C 0 km/h
404 06-06-2011 08:42:02 18.3 C 13.76 g/m*3 18.3 C 0 km/h
405 06-06-2011 08:54:02 18.1 C 13.44 g/m*3 18.1 C 0 km/h
406 06-06-2011 09:06:01 18.3 C 13.29 g/m*3 18.3 C 0 km/h
407 06-06-2011 09:18:02 18.1 C 12.82 g/m*3 18.1 C 0 km/h
408 06-06-2011 09:30:02 18.1 C 12.98 g/m*3 18.1 C 0 km/h
409 06-06-2011 09:42:02 18.3 C 12.98 g/m*3 18.3 C 0 km/h
410 06-06-2011 09:54:02 18.8 C 13.37 g/m*3 18.8 C 0 km/h
411 06-06-2011 10:06:02 19 C 13.53 g/m*3 19 C 0 km/h
412 06-06-2011 10:18:02 19.6 C 13.34 g/m*3 19.6 C 0 km/h
413 06-06-2011 10:30:02 20.7 C 13.14 g/m*3 20.7 C 0 km/h
414 06-06-2011 10:42:02 21.3 C 11.93 g/m*3 21.3 C 0 km/h
415 06-06-2011 10:54:02 21.4 C 12 g/m*3 21.4 C 0 km/h
416 06-06-2011 11:06:02 21.9 C 11.77 g/m*3 21.9 C 0 km/h
417 06-06-2011 11:18:02 22.9 C 10.83 g/m*3 22.9 C 0 km/h
418 06-06-2011 11:30:02 21.5 C 10.75 g/m*3 21.5 C 0 km/h
419 06-06-2011 11:42:02 22.3 C 10.86 g/m*3 22.3 C 0 km/h
420 06-06-2011 11:54:02 22.9 C 11.24 g/m*3 22.9 C 0 km/h
421 06-06-2011 12:06:02 23 C 11.1 g/m*3 23 C 0 km/h
422 06-06-2011 12:18:02 22.9 C 10.83 g/m*3 22.9 C 0 km/h
423 06-06-2011 12:30:02 23.5 C 10.79 g/m*3 23.5 C 0 km/h
424 06-06-2011 12:42:02 23.9 C 11.03 g/m*3 23.9 C 0 km/h
425 06-06-2011 12:54:02 24.2 C 10.78 g/m*3 24.2 C 0 km/h
Sensor: Nr:Datum:Temp:Abs-Feuchte:Windchill:Wind:
Aussen-T/F 426 06-06-2011 13:06:01 24.6 C 11.25 g/m*3 24.6 C 0 km/h
427 06-06-2011 13:18:02 24.6 C 10.35 g/m*3 24.6 C 0 km/h
428 06-06-2011 13:30:02 29.1 C 10.11 g/m*3 29.1 C 0 km/h
429 06-06-2011 13:42:01 27.8 C 9.95 g/m*3 27.8 C 0 km/h
430 06-06-2011 13:54:02 27 C 9.01 g/m*3 27 C 0 km/h
431 06-06-2011 14:06:01 28.3 C 9.68 g/m*3 28.3 C 0 km/h
432 06-06-2011 14:18:01 27.3 C 9.42 g/m*3 27.3 C 0 km/h
433 06-06-2011 14:30:01 26.7 C 9.37 g/m*3 26.7 C 0 km/h
434 06-06-2011 14:42:02 26.4 C 8.96 g/m*3 26.4 C 0 km/h
435 06-06-2011 14:54:02 26.5 C 10.01 g/m*3 26.5 C 0 km/h
436 06-06-2011 15:06:02 26.2 C 8.86 g/m*3 26.2 C 0 km/h
437 06-06-2011 15:18:01 25.8 C 9.87 g/m*3 25.8 C 0 km/h
438 06-06-2011 15:30:01 25.5 C 11.6 g/m*3 25.5 C 0 km/h
439 06-06-2011 15:42:02 27.2 C 10.15 g/m*3 27.2 C 0 km/h
440 06-06-2011 15:54:02 25.1 C 9.26 g/m*3 25.1 C 0 km/h
441 06-06-2011 16:06:02 24.8 C 10.24 g/m*3 24.8 C 0 km/h
442 06-06-2011 16:18:01 25.1 C 10.19 g/m*3 25.1 C 0 km/h
443 06-06-2011 16:30:01 26.1 C 10.28 g/m*3 26.1 C 0 km/h
444 06-06-2011 16:42:02 25.8 C 10.11 g/m*3 25.8 C 0 km/h
445 06-06-2011 16:54:02 23 C 8.63 g/m*3 23 C 0 km/h
446 06-06-2011 17:06:02 21.1 C 8.84 g/m*3 21.1 C 0 km/h
447 06-06-2011 17:18:01 18 C 9.83 g/m*3 18 C 0 km/h
448 06-06-2011 17:30:01 16.9 C 10.79 g/m*3 16.9 C 0 km/h
449 06-06-2011 17:42:02 16.4 C 10.89 g/m*3 16.4 C 0 km/h
450 06-06-2011 17:54:01 16.3 C 11.38 g/m*3 16.3 C 0 km/h
Sensor: Nr:Datum:Temp:Abs-Feuchte:Windchill:Wind:
Aussen-T/F 451 06-06-2011 18:06:02 16.4 C 11.72 g/m*3 16.4 C 0 km/h
452 06-06-2011 18:18:02 17 C 12.01 g/m*3 17 C 0 km/h
453 06-06-2011 18:30:02 16.8 C 12.01 g/m*3 16.8 C 0 km/h
454 06-06-2011 18:42:01 17.2 C 12.3 g/m*3 17.2 C 0 km/h
455 06-06-2011 18:54:02 17.2 C 12.3 g/m*3 17.2 C 0 km/h
456 06-06-2011 19:06:01 17.2 C 12.3 g/m*3 17.2 C 0 km/h
457 06-06-2011 19:18:02 17.5 C 12.67 g/m*3 17.5 C 0 km/h
458 06-06-2011 19:30:03 17.8 C 12.9 g/m*3 17.8 C 0 km/h
459 06-06-2011 19:42:01 18.1 C 12.82 g/m*3 18.1 C 0 km/h
460 06-06-2011 19:54:02 18.1 C 12.82 g/m*3 18.1 C 0 km/h
461 06-06-2011 20:06:02 18.1 C 12.67 g/m*3 18.1 C 0 km/h
462 06-06-2011 20:18:02 18.1 C 12.67 g/m*3 18.1 C 0 km/h
463 06-06-2011 20:30:02 18.1 C 12.67 g/m*3 18.1 C 0 km/h
464 06-06-2011 20:42:49 17.5 C 12.52 g/m*3 17.5 C 0 km/h
465 06-06-2011 20:54:49 17.2 C 12.45 g/m*3 17.2 C 0 km/h
466 06-06-2011 21:06:49 16.8 C 12.15 g/m*3 16.8 C 0 km/h
467 06-06-2011 21:18:03 16.5 C 12.08 g/m*3 16.5 C 0 km/h
468 06-06-2011 21:30:03 16.3 C 11.93 g/m*3 16.3 C 0 km/h
469 06-06-2011 21:42:02 16.2 C 12 g/m*3 16.2 C 0 km/h
470 06-06-2011 21:55:02 15.9 C 11.78 g/m*3 15.9 C 0 km/h
471 06-06-2011 22:07:02 15.9 C 11.92 g/m*3 15.9 C 0 km/h
472 06-06-2011 22:19:02 15.6 C 11.7 g/m*3 15.6 C 0 km/h
473 06-06-2011 22:31:02 15.3 C 11.49 g/m*3 15.3 C 0 km/h
474 06-06-2011 22:43:02 15.8 C 11.98 g/m*3 15.8 C 0 km/h
475 06-06-2011 22:55:02 15.6 C 11.84 g/m*3 15.6 C 0 km/h
Sensor: Nr:Datum:Temp:Abs-Feuchte:Windchill:Wind:
Aussen-T/F 476 06-06-2011 23:07:03 15.5 C 11.76 g/m*3 15.5 C 0 km/h
477 06-06-2011 23:19:03 15.7 C 11.91 g/m*3 15.7 C 0 km/h
478 06-06-2011 23:31:03 15.6 C 11.84 g/m*3 15.6 C 0 km/h
479 06-06-2011 23:43:03 15.6 C 11.84 g/m*3 15.6 C 0 km/h
480 06-06-2011 23:55:03 15.4 C 11.69 g/m*3 15.4 C 0 km/h
481 07-06-2011 00:07:03 15 C 11.41 g/m*3 15 C 0 km/h
482 07-06-2011 00:19:03 15.2 C 11.55 g/m*3 15.2 C 0 km/h
483 07-06-2011 00:31:03 15.2 C 11.55 g/m*3 15.2 C 0 km/h
484 07-06-2011 00:43:03 15.1 C 11.48 g/m*3 15.1 C 0 km/h
485 07-06-2011 00:55:03 15.2 C 11.55 g/m*3 15.2 C 0 km/h
486 07-06-2011 01:07:03 15.3 C 11.75 g/m*3 15.3 C 0 km/h
487 07-06-2011 01:19:03 15.3 C 11.75 g/m*3 15.3 C 0 km/h
488 07-06-2011 01:31:03 15.3 C 11.75 g/m*3 15.3 C 0 km/h
489 07-06-2011 01:43:03 15.5 C 11.9 g/m*3 15.5 C 0 km/h
490 07-06-2011 01:55:03 15.5 C 11.9 g/m*3 15.5 C 0 km/h
491 07-06-2011 02:07:03 15.6 C 11.97 g/m*3 15.6 C 0 km/h
492 07-06-2011 02:19:03 15.7 C 12.04 g/m*3 15.7 C 0 km/h
493 07-06-2011 02:31:03 15.7 C 12.04 g/m*3 15.7 C 0 km/h
494 07-06-2011 02:43:03 15.7 C 12.04 g/m*3 15.7 C 0 km/h
495 07-06-2011 02:55:03 15.5 C 11.9 g/m*3 15.5 C 0 km/h
496 07-06-2011 03:07:04 15.5 C 11.9 g/m*3 15.5 C 0 km/h
497 07-06-2011 03:19:04 15.4 C 11.82 g/m*3 15.4 C 0 km/h
498 07-06-2011 03:31:04 15 C 11.54 g/m*3 15 C 0 km/h
499 07-06-2011 03:43:04 14.9 C 11.6 g/m*3 14.9 C 0 km/h
500 07-06-2011 03:55:04 14.8 C 11.53 g/m*3 14.8 C 0 km/h
Sensor: Nr:Datum:Temp:Abs-Feuchte:Windchill:Wind:
Aussen-T/F 501 07-06-2011 04:07:04 15 C 11.54 g/m*3 15 C 0 km/h
502 07-06-2011 04:19:04 15.1 C 11.61 g/m*3 15.1 C 0 km/h
503 07-06-2011 04:31:04 15.2 C 11.68 g/m*3 15.2 C 0 km/h
504 07-06-2011 04:43:04 15.2 C 11.68 g/m*3 15.2 C 0 km/h
505 07-06-2011 04:55:04 15.1 C 11.61 g/m*3 15.1 C 0 km/h
506 07-06-2011 05:07:04 15 C 11.54 g/m*3 15 C 0 km/h
507 07-06-2011 05:19:04 15 C 11.54 g/m*3 15 C 0 km/h
508 07-06-2011 05:31:04 15 C 11.54 g/m*3 15 C 0 km/h
509 07-06-2011 05:43:04 15 C 11.54 g/m*3 15 C 0 km/h
510 07-06-2011 05:55:04 15 C 11.54 g/m*3 15 C 0 km/h
511 07-06-2011 06:07:04 14.7 C 11.33 g/m*3 14.7 C 0 km/h
512 07-06-2011 06:19:04 14.8 C 11.4 g/m*3 14.8 C 0 km/h
513 07-06-2011 06:31:04 14.8 C 11.4 g/m*3 14.8 C 0 km/h
514 07-06-2011 06:43:04 14.9 C 11.47 g/m*3 14.9 C 0 km/h
515 07-06-2011 06:55:04 15.2 C 11.42 g/m*3 15.2 C 0 km/h
516 07-06-2011 07:07:02 15.4 C 11.04 g/m*3 15.4 C 0 km/h
517 07-06-2011 07:19:02 15.7 C 10.84 g/m*3 15.7 C 0 km/h
518 07-06-2011 07:31:02 16 C 10.9 g/m*3 16 C 0 km/h
519 07-06-2011 07:43:02 16.2 C 10.76 g/m*3 16.2 C 0 km/h
520 07-06-2011 07:55:02 16.6 C 10.03 g/m*3 16.6 C 0 km/h
521 07-06-2011 08:07:02 16.9 C 9.92 g/m*3 16.9 C 0 km/h
522 07-06-2011 08:19:01 17.2 C 9.67 g/m*3 17.2 C 0 km/h
523 07-06-2011 08:31:02 17.8 C 9.87 g/m*3 17.8 C 0 km/h
524 07-06-2011 08:43:02 17.9 C 9.47 g/m*3 17.9 C 0 km/h
525 07-06-2011 08:55:02 18.2 C 8.86 g/m*3 18.2 C 0 km/h
Sensor: Nr:Datum:Temp:Abs-Feuchte:Windchill:Wind:
Aussen-T/F 526 07-06-2011 09:07:02 18.4 C 8.81 g/m*3 18.4 C 0 km/h
527 07-06-2011 09:19:01 18.5 C 8.54 g/m*3 18.5 C 0 km/h
528 07-06-2011 09:31:02 18.1 C 8.5 g/m*3 18.1 C 0 km/h
529 07-06-2011 09:43:02 18.4 C 8.81 g/m*3 18.4 C 0 km/h
530 07-06-2011 09:55:02 18.9 C 8.59 g/m*3 18.9 C 0 km/h
531 07-06-2011 10:07:02 18.8 C 8.21 g/m*3 18.8 C 0 km/h
532 07-06-2011 10:19:02 19.2 C 8.24 g/m*3 19.2 C 0 km/h
533 07-06-2011 10:31:02 19.1 C 8.03 g/m*3 19.1 C 0 km/h
534 07-06-2011 10:43:02 19.5 C 9.06 g/m*3 19.5 C 0 km/h
535 07-06-2011 10:55:02 19.1 C 8.85 g/m*3 19.1 C 0 km/h
536 07-06-2011 11:07:02 19.1 C 8.2 g/m*3 19.1 C 0 km/h
537 07-06-2011 11:19:02 19.2 C 8.41 g/m*3 19.2 C 0 km/h
538 07-06-2011 11:31:02 19.3 C 8.46 g/m*3 19.3 C 0 km/h
539 07-06-2011 11:43:02 19.5 C 8.39 g/m*3 19.5 C 0 km/h
540 07-06-2011 11:55:02 19.7 C 8.66 g/m*3 19.7 C 0 km/h
541 07-06-2011 12:07:02 20.8 C 8.69 g/m*3 20.8 C 0 km/h
542 07-06-2011 12:19:02 21.1 C 8.66 g/m*3 21.1 C 0 km/h
543 07-06-2011 12:31:02 21.1 C 8.48 g/m*3 21.1 C 0 km/h
544 07-06-2011 12:43:02 20.9 C 8.74 g/m*3 20.9 C 0 km/h
545 07-06-2011 12:55:02 21.2 C 8.52 g/m*3 21.2 C 0 km/h
546 07-06-2011 13:07:01 21.9 C 8.68 g/m*3 21.9 C 0 km/h
547 07-06-2011 13:19:02 22.3 C 8.89 g/m*3 22.3 C 0 km/h
548 07-06-2011 13:31:01 25.7 C 8.38 g/m*3 25.7 C 0 km/h
549 07-06-2011 13:43:01 29.1 C 8.66 g/m*3 29.1 C 0 km/h
550 07-06-2011 13:55:02 30.5 C 8.1 g/m*3 30.5 C 0 km/h
Sensor: Nr:Datum:Temp:Abs-Feuchte:Windchill:Wind:
Aussen-T/F 551 07-06-2011 14:07:01 30.3 C 8.32 g/m*3 30.3 C 0 km/h
552 07-06-2011 14:19:01 30.3 C 8.01 g/m*3 30.3 C 0 km/h
553 07-06-2011 14:31:02 28.9 C 7.71 g/m*3 28.9 C 0 km/h
554 07-06-2011 14:43:02 29 C 8.04 g/m*3 29 C 0 km/h
555 07-06-2011 14:55:02 27.1 C 8.02 g/m*3 27.1 C 0 km/h
556 07-06-2011 15:07:02 30.3 C 8.32 g/m*3 30.3 C 0 km/h
557 07-06-2011 15:19:02 29.5 C 8.26 g/m*3 29.5 C 0 km/h
558 07-06-2011 15:31:02 30 C 8.49 g/m*3 30 C 0 km/h
559 07-06-2011 15:43:02 30.5 C 8.1 g/m*3 30.5 C 0 km/h
560 07-06-2011 15:55:02 28.6 C 7.59 g/m*3 28.6 C 0 km/h
561 07-06-2011 16:07:02 30 C 7.88 g/m*3 30 C 0 km/h
562 07-06-2011 16:19:02 31.8 C 7.01 g/m*3 31.8 C 0 km/h
563 07-06-2011 16:31:02 30.1 C 7.62 g/m*3 30.1 C 0 km/h
564 07-06-2011 16:43:02 31.7 C 6.98 g/m*3 31.7 C 0 km/h
565 07-06-2011 16:55:02 32.1 C 6.79 g/m*3 32.1 C 0 km/h
566 07-06-2011 17:07:02 31.5 C 7.23 g/m*3 31.5 C 0 km/h
567 07-06-2011 17:19:03 29.9 C 8.14 g/m*3 29.9 C 0 km/h
568 07-06-2011 17:31:02 30.6 C 7.83 g/m*3 30.6 C 0 km/h
569 07-06-2011 17:43:02 29.3 C 8.17 g/m*3 29.3 C 0 km/h
570 07-06-2011 17:55:02 27.1 C 11.13 g/m*3 27.1 C 0 km/h
571 07-06-2011 18:07:01 24.3 C 11.29 g/m*3 24.3 C 0 km/h
572 07-06-2011 18:19:02 25.2 C 11.64 g/m*3 25.2 C 0 km/h
573 07-06-2011 18:31:01 29.7 C 8.95 g/m*3 29.7 C 0 km/h
574 07-06-2011 18:43:01 29.5 C 8.85 g/m*3 29.5 C 0 km/h
575 07-06-2011 18:55:02 28.3 C 9.4 g/m*3 28.3 C 0 km/h
Sensor: Nr:Datum:Temp:Abs-Feuchte:Windchill:Wind:
Aussen-T/F 576 07-06-2011 19:07:01 27.3 C 11.25 g/m*3 27.3 C 0 km/h
577 07-06-2011 19:19:01 27.7 C 11.77 g/m*3 27.7 C 0 km/h
578 07-06-2011 19:31:02 26.5 C 11.77 g/m*3 26.5 C 0 km/h
579 07-06-2011 19:43:02 24.5 C 11.41 g/m*3 24.5 C 0 km/h
580 07-06-2011 19:55:02 23.1 C 11.58 g/m*3 23.1 C 0 km/h
581 07-06-2011 20:07:02 22.1 C 11.71 g/m*3 22.1 C 0 km/h
582 07-06-2011 20:19:02 21.9 C 11.96 g/m*3 21.9 C 0 km/h
583 07-06-2011 20:31:02 21.2 C 11.49 g/m*3 21.2 C 0 km/h
584 07-06-2011 20:43:02 20.5 C 11.39 g/m*3 20.5 C 0 km/h
585 07-06-2011 20:55:02 20 C 11.06 g/m*3 20 C 0 km/h
586 07-06-2011 21:07:03 19.7 C 11.21 g/m*3 19.7 C 0 km/h
587 07-06-2011 21:19:02 19.6 C 10.97 g/m*3 19.6 C 0 km/h
588 07-06-2011 21:31:04 19.4 C 11.35 g/m*3 19.4 C 0 km/h
589 07-06-2011 21:43:04 19.1 C 11.15 g/m*3 19.1 C 0 km/h
590 07-06-2011 21:55:02 19 C 11.41 g/m*3 19 C 0 km/h
591 07-06-2011 22:07:02 18.5 C 11.39 g/m*3 18.5 C 0 km/h
592 07-06-2011 22:19:02 18.9 C 11.5 g/m*3 18.9 C 0 km/h
593 07-06-2011 22:32:01 19.7 C 11.21 g/m*3 19.7 C 0 km/h
594 07-06-2011 22:44:01 19.5 C 10.91 g/m*3 19.5 C 0 km/h
595 07-06-2011 22:56:01 19 C 11.41 g/m*3 19 C 0 km/h
596 07-06-2011 23:08:01 18.6 C 11.78 g/m*3 18.6 C 0 km/h
597 07-06-2011 23:20:01 18.5 C 11.87 g/m*3 18.5 C 0 km/h
598 07-06-2011 23:32:01 19.5 C 10.07 g/m*3 19.5 C 0 km/h
599 07-06-2011 23:44:01 19.1 C 9.51 g/m*3 19.1 C 0 km/h
600 07-06-2011 23:56:02 17.7 C 10.11 g/m*3 17.7 C 0 km/h
Sensor: Nr:Datum:Temp:Abs-Feuchte:Windchill:Wind:
Aussen-T/F 601 08-06-2011 00:08:02 16.8 C 11.29 g/m*3 16.8 C 0 km/h
602 08-06-2011 00:20:02 16.4 C 11.31 g/m*3 16.4 C 0 km/h
603 08-06-2011 00:32:02 16.4 C 11.45 g/m*3 16.4 C 0 km/h
604 08-06-2011 00:44:02 16.3 C 11.52 g/m*3 16.3 C 0 km/h
605 08-06-2011 00:56:02 16.2 C 11.58 g/m*3 16.2 C 0 km/h
606 08-06-2011 01:08:02 16.1 C 11.65 g/m*3 16.1 C 0 km/h
607 08-06-2011 01:20:02 16 C 11.72 g/m*3 16 C 0 km/h
608 08-06-2011 01:32:02 16 C 11.72 g/m*3 16 C 0 km/h
609 08-06-2011 01:44:02 16 C 11.85 g/m*3 16 C 0 km/h
610 08-06-2011 01:56:02 15.9 C 11.92 g/m*3 15.9 C 0 km/h
611 08-06-2011 02:08:02 15.7 C 11.77 g/m*3 15.7 C 0 km/h
612 08-06-2011 02:20:02 15.6 C 11.7 g/m*3 15.6 C 0 km/h
613 08-06-2011 02:32:02 15.5 C 11.63 g/m*3 15.5 C 0 km/h
614 08-06-2011 02:44:02 15.4 C 11.56 g/m*3 15.4 C 0 km/h
615 08-06-2011 02:56:02 15.4 C 11.56 g/m*3 15.4 C 0 km/h
616 08-06-2011 03:08:02 15.3 C 11.49 g/m*3 15.3 C 0 km/h
617 08-06-2011 03:20:02 15.2 C 11.55 g/m*3 15.2 C 0 km/h
618 08-06-2011 03:32:02 15.2 C 11.55 g/m*3 15.2 C 0 km/h
619 08-06-2011 03:44:02 15.2 C 11.55 g/m*3 15.2 C 0 km/h
620 08-06-2011 03:56:03 15.1 C 11.48 g/m*3 15.1 C 0 km/h
621 08-06-2011 04:08:03 15.1 C 11.48 g/m*3 15.1 C 0 km/h
622 08-06-2011 04:20:03 15.2 C 11.55 g/m*3 15.2 C 0 km/h
623 08-06-2011 04:32:03 15.1 C 11.48 g/m*3 15.1 C 0 km/h
624 08-06-2011 04:44:03 15.1 C 11.48 g/m*3 15.1 C 0 km/h
625 08-06-2011 04:56:03 15.1 C 11.48 g/m*3 15.1 C 0 km/h
Sensor: Nr:Datum:Temp:Abs-Feuchte:Windchill:Wind:
Aussen-T/F 626 08-06-2011 05:08:03 15 C 11.41 g/m*3 15 C 0 km/h
627 08-06-2011 05:20:03 14.9 C 11.47 g/m*3 14.9 C 0 km/h
628 08-06-2011 05:32:03 15 C 11.41 g/m*3 15 C 0 km/h
629 08-06-2011 05:44:03 15 C 11.41 g/m*3 15 C 0 km/h
630 08-06-2011 05:56:03 15.1 C 11.48 g/m*3 15.1 C 0 km/h
631 08-06-2011 06:08:03 15 C 11.41 g/m*3 15 C 0 km/h
632 08-06-2011 06:20:03 13.4 C 10.46 g/m*3 13.4 C 0 km/h
633 08-06-2011 06:32:03 12.6 C 9.96 g/m*3 12.6 C 0 km/h
634 08-06-2011 06:44:03 12.5 C 9.78 g/m*3 12.5 C 0 km/h
635 08-06-2011 06:56:03 12.4 C 9.51 g/m*3 12.4 C 0 km/h
636 08-06-2011 07:08:02 12.1 C 9.22 g/m*3 12.1 C 0 km/h
637 08-06-2011 07:20:01 12.1 C 9.12 g/m*3 12.1 C 0 km/h
638 08-06-2011 07:32:02 11.9 C 9.11 g/m*3 11.9 C 0 km/h
639 08-06-2011 07:44:02 11.8 C 9.05 g/m*3 11.8 C 0 km/h
640 08-06-2011 07:56:02 11.4 C 8.62 g/m*3 11.4 C 0 km/h
641 08-06-2011 08:08:02 11.4 C 8.72 g/m*3 11.4 C 0 km/h
642 08-06-2011 08:20:01 11.2 C 8.62 g/m*3 11.2 C 0 km/h
643 08-06-2011 08:32:02 11.5 C 8.88 g/m*3 11.5 C 0 km/h
644 08-06-2011 08:44:02 11.4 C 8.72 g/m*3 11.4 C 0 km/h
645 08-06-2011 08:56:01 11.3 C 8.57 g/m*3 11.3 C 0 km/h
646 08-06-2011 09:08:02 11.7 C 8.89 g/m*3 11.7 C 0 km/h
647 08-06-2011 09:20:02 11.8 C 8.95 g/m*3 11.8 C 0 km/h
648 08-06-2011 09:32:01 11.8 C 8.84 g/m*3 11.8 C 0 km/h
649 08-06-2011 09:44:01 12 C 8.95 g/m*3 12 C 0 km/h
650 08-06-2011 09:56:01 11.7 C 8.79 g/m*3 11.7 C 0 km/h
Sensor: Nr:Datum:Temp:Abs-Feuchte:Windchill:Wind:
Aussen-T/F 651 08-06-2011 10:08:01 11.9 C 8.9 g/m*3 11.9 C 0 km/h
652 08-06-2011 10:20:02 12.3 C 8.9 g/m*3 12.3 C 0 km/h
653 08-06-2011 10:32:01 12.4 C 8.85 g/m*3 12.4 C 0 km/h
654 08-06-2011 10:44:01 12.2 C 8.52 g/m*3 12.2 C 0 km/h
655 08-06-2011 10:56:03 12 C 8.1 g/m*3 12 C 0 km/h
656 08-06-2011 11:08:02 12.1 C 8.15 g/m*3 12.1 C 0 km/h
657 08-06-2011 11:20:02 12.4 C 8.19 g/m*3 12.4 C 0 km/h
658 08-06-2011 11:32:02 13.5 C 9.01 g/m*3 13.5 C 0 km/h
659 08-06-2011 11:44:02 14.1 C 7.89 g/m*3 14.1 C 0 km/h
660 08-06-2011 11:56:02 14.5 C 7.59 g/m*3 14.5 C 0 km/h
661 08-06-2011 12:08:01 15.4 C 7.75 g/m*3 15.4 C 0 km/h
662 08-06-2011 12:20:02 15.9 C 6.77 g/m*3 15.9 C 0 km/h
663 08-06-2011 12:32:02 15.8 C 6.6 g/m*3 15.8 C 0 km/h
664 08-06-2011 12:44:02 16.2 C 6.34 g/m*3 16.2 C 0 km/h
665 08-06-2011 12:56:02 17.3 C 6.48 g/m*3 17.3 C 0 km/h
666 08-06-2011 13:08:02 18 C 6.6 g/m*3 18 C 0 km/h
667 08-06-2011 13:20:02 18.6 C 7 g/m*3 18.6 C 0 km/h
668 08-06-2011 13:32:02 19.9 C 7.04 g/m*3 19.9 C 0 km/h
669 08-06-2011 13:44:02 22 C 6.6 g/m*3 22 C 0 km/h
670 08-06-2011 13:56:01 24.2 C 6.82 g/m*3 24.2 C 0 km/h
671 08-06-2011 14:08:02 20.5 C 6.58 g/m*3 20.5 C 0 km/h
672 08-06-2011 14:20:01 18.9 C 6.97 g/m*3 18.9 C 0 km/h
673 08-06-2011 14:32:01 18.6 C 7.16 g/m*3 18.6 C 0 km/h
674 08-06-2011 14:44:01 22.9 C 7.36 g/m*3 22.9 C 0 km/h
675 08-06-2011 14:56:01 19.6 C 6.75 g/m*3 19.6 C 0 km/h
Sensor: Nr:Datum:Temp:Abs-Feuchte:Windchill:Wind:
Aussen-T/F 676 08-06-2011 15:08:01 21.1 C 6.82 g/m*3 21.1 C 0 km/h
677 08-06-2011 15:20:01 22.4 C 6.75 g/m*3 22.4 C 0 km/h
678 08-06-2011 15:32:01 19.9 C 7.04 g/m*3 19.9 C 0 km/h
679 08-06-2011 15:44:01 20.3 C 7.03 g/m*3 20.3 C 0 km/h
680 08-06-2011 15:56:02 20.8 C 7.42 g/m*3 20.8 C 0 km/h
681 08-06-2011 16:08:02 20.3 C 6.16 g/m*3 20.3 C 0 km/h
682 08-06-2011 16:20:03 19.4 C 5.51 g/m*3 19.4 C 0 km/h
683 08-06-2011 16:32:02 20.4 C 5.66 g/m*3 20.4 C 0 km/h
684 08-06-2011 16:44:02 19.2 C 5.11 g/m*3 19.2 C 0 km/h
685 08-06-2011 16:56:02 20.9 C 5.28 g/m*3 20.9 C 0 km/h
686 08-06-2011 17:08:02 20.6 C 5.55 g/m*3 20.6 C 0 km/h
687 08-06-2011 17:20:02 20.9 C 5.46 g/m*3 20.9 C 0 km/h
688 08-06-2011 17:32:02 19.6 C 5.06 g/m*3 19.6 C 0 km/h
689 08-06-2011 17:44:02 18.9 C 5.67 g/m*3 18.9 C 0 km/h
690 08-06-2011 17:56:02 18.6 C 5.73 g/m*3 18.6 C 0 km/h
691 08-06-2011 18:08:02 19.4 C 5.51 g/m*3 19.4 C 0 km/h
692 08-06-2011 18:20:02 18.6 C 5.73 g/m*3 18.6 C 0 km/h
693 08-06-2011 18:32:02 18.2 C 6.22 g/m*3 18.2 C 0 km/h
694 08-06-2011 18:44:02 17.9 C 6.11 g/m*3 17.9 C 0 km/h
695 08-06-2011 18:56:02 17.6 C 6.3 g/m*3 17.6 C 0 km/h
696 08-06-2011 19:08:01 17.7 C 6.34 g/m*3 17.7 C 0 km/h
697 08-06-2011 19:20:02 17.4 C 6.97 g/m*3 17.4 C 0 km/h
698 08-06-2011 19:32:01 17.3 C 7.66 g/m*3 17.3 C 0 km/h
699 08-06-2011 19:44:01 17.3 C 7.22 g/m*3 17.3 C 0 km/h
700 08-06-2011 19:56:02 16.9 C 6.47 g/m*3 16.9 C 0 km/h
Sensor: Nr:Datum:Temp:Abs-Feuchte:Windchill:Wind:
Aussen-T/F 701 08-06-2011 20:08:01 16.3 C 7.08 g/m*3 16.3 C 0 km/h
702 08-06-2011 20:20:01 16.3 C 7.08 g/m*3 16.3 C 0 km/h
703 08-06-2011 20:32:02 16.3 C 7.08 g/m*3 16.3 C 0 km/h
704 08-06-2011 20:44:02 15 C 8.21 g/m*3 15 C 0 km/h
705 08-06-2011 20:56:02 14.9 C 8.16 g/m*3 14.9 C 0 km/h
706 08-06-2011 21:08:02 14.7 C 8.18 g/m*3 14.7 C 0 km/h
707 08-06-2011 21:20:02 14.4 C 8.03 g/m*3 14.4 C 0 km/h
708 08-06-2011 21:32:02 14.2 C 8.3 g/m*3 14.2 C 0 km/h
709 08-06-2011 21:44:02 14 C 8.32 g/m*3 14 C 0 km/h
710 08-06-2011 21:56:02 13.7 C 8.41 g/m*3 13.7 C 0 km/h
711 08-06-2011 22:08:02 13.6 C 8.47 g/m*3 13.6 C 0 km/h
712 08-06-2011 22:20:02 13.2 C 8.27 g/m*3 13.2 C 0 km/h
713 08-06-2011 22:32:03 13.4 C 8.49 g/m*3 13.4 C 0 km/h
714 08-06-2011 22:44:03 13.2 C 8.15 g/m*3 13.2 C 0 km/h
715 08-06-2011 22:56:03 13.2 C 8.04 g/m*3 13.2 C 0 km/h
716 08-06-2011 23:08:02 13.3 C 7.86 g/m*3 13.3 C 0 km/h
717 08-06-2011 23:21:04 13.4 C 7.79 g/m*3 13.4 C 0 km/h
718 08-06-2011 23:33:04 13.4 C 7.79 g/m*3 13.4 C 0 km/h
719 08-06-2011 23:45:04 13.4 C 7.79 g/m*3 13.4 C 0 km/h
720 08-06-2011 23:57:04 13.4 C 7.79 g/m*3 13.4 C 0 km/h
721 09-06-2011 00:09:04 13.4 C 7.79 g/m*3 13.4 C 0 km/h
722 09-06-2011 00:21:04 13.4 C 7.79 g/m*3 13.4 C 0 km/h
723 09-06-2011 00:33:04 13.4 C 7.79 g/m*3 13.4 C 0 km/h
724 09-06-2011 00:45:04 13.4 C 7.79 g/m*3 13.4 C 0 km/h
725 09-06-2011 00:57:05 13.4 C 7.79 g/m*3 13.4 C 0 km/h
Sensor: Nr:Datum:Temp:Abs-Feuchte:Windchill:Wind:
Aussen-T/F 726 09-06-2011 01:09:05 13.4 C 7.79 g/m*3 13.4 C 0 km/h
727 09-06-2011 01:21:05 11.7 C 7.64 g/m*3 11.7 C 0 km/h
728 09-06-2011 01:33:05 11.7 C 7.64 g/m*3 11.7 C 0 km/h
729 09-06-2011 01:45:05 11.7 C 7.64 g/m*3 11.7 C 0 km/h
730 09-06-2011 01:57:05 11.1 C 7.55 g/m*3 11.1 C 0 km/h
731 09-06-2011 02:09:05 11.1 C 7.55 g/m*3 11.1 C 0 km/h
732 09-06-2011 02:21:05 11.1 C 7.55 g/m*3 11.1 C 0 km/h
733 09-06-2011 02:33:05 11.1 C 7.55 g/m*3 11.1 C 0 km/h
734 09-06-2011 02:45:05 11.1 C 7.55 g/m*3 11.1 C 0 km/h
735 09-06-2011 02:57:05 11.1 C 7.55 g/m*3 11.1 C 0 km/h
736 09-06-2011 03:09:05 11.1 C 7.55 g/m*3 11.1 C 0 km/h
737 09-06-2011 03:21:05 11.1 C 7.55 g/m*3 11.1 C 0 km/h
738 09-06-2011 03:33:05 11.1 C 7.55 g/m*3 11.1 C 0 km/h
739 09-06-2011 03:45:05 11.1 C 7.55 g/m*3 11.1 C 0 km/h
740 09-06-2011 03:57:05 11.1 C 7.55 g/m*3 11.1 C 0 km/h
741 09-06-2011 04:09:05 11.1 C 7.55 g/m*3 11.1 C 0 km/h
742 09-06-2011 04:21:05 11.1 C 7.55 g/m*3 11.1 C 0 km/h
743 09-06-2011 04:33:05 11.1 C 7.55 g/m*3 11.1 C 0 km/h
744 09-06-2011 04:45:05 11.1 C 7.55 g/m*3 11.1 C 0 km/h
745 09-06-2011 04:57:06 11.1 C 7.55 g/m*3 11.1 C 0 km/h
746 09-06-2011 05:09:06 11.1 C 7.55 g/m*3 11.1 C 0 km/h
747 09-06-2011 05:21:06 11.1 C 7.55 g/m*3 11.1 C 0 km/h
748 09-06-2011 05:33:06 11.1 C 7.55 g/m*3 11.1 C 0 km/h
749 09-06-2011 05:45:06 11.1 C 7.55 g/m*3 11.1 C 0 km/h
750 09-06-2011 05:57:06 11.1 C 7.55 g/m*3 11.1 C 0 km/h
Sensor: Nr:Datum:Temp:Abs-Feuchte:Windchill:Wind:
Aussen-T/F 751 09-06-2011 06:09:06 11.1 C 7.55 g/m*3 11.1 C 0 km/h
752 09-06-2011 06:21:06 8.8 C 7.66 g/m*3 8.8 C 0 km/h
753 09-06-2011 06:33:06 8.7 C 7.61 g/m*3 8.7 C 0 km/h
754 09-06-2011 06:45:02 8.6 C 7.56 g/m*3 8.6 C 0 km/h
755 09-06-2011 06:57:02 8.8 C 7.66 g/m*3 8.8 C 0 km/h
756 09-06-2011 07:09:02 9.3 C 7.91 g/m*3 9.3 C 0 km/h
757 09-06-2011 07:21:02 9.5 C 8.01 g/m*3 9.5 C 0 km/h
758 09-06-2011 07:33:02 9.7 C 8.11 g/m*3 9.7 C 0 km/h
759 09-06-2011 07:45:02 9.7 C 8.11 g/m*3 9.7 C 0 km/h
760 09-06-2011 07:57:02 9.7 C 8.11 g/m*3 9.7 C 0 km/h
761 09-06-2011 08:09:01 9.7 C 8.11 g/m*3 9.7 C 0 km/h
762 09-06-2011 08:21:02 9.7 C 8.11 g/m*3 9.7 C 0 km/h
763 09-06-2011 08:33:02 9.7 C 8.11 g/m*3 9.7 C 0 km/h
764 09-06-2011 08:45:02 9.7 C 8.11 g/m*3 9.7 C 0 km/h
765 09-06-2011 08:57:02 9.7 C 8.11 g/m*3 9.7 C 0 km/h
766 09-06-2011 09:09:03 9.7 C 8.11 g/m*3 9.7 C 0 km/h
767 09-06-2011 09:21:02 9.7 C 8.11 g/m*3 9.7 C 0 km/h
768 09-06-2011 09:33:03 9.7 C 8.11 g/m*3 9.7 C 0 km/h
769 09-06-2011 09:45:02 9.7 C 8.11 g/m*3 9.7 C 0 km/h
770 09-06-2011 09:57:03 9.7 C 8.11 g/m*3 9.7 C 0 km/h
771 09-06-2011 10:09:01 9.7 C 8.11 g/m*3 9.7 C 0 km/h
772 09-06-2011 10:21:02 9.7 C 8.11 g/m*3 9.7 C 0 km/h
773 09-06-2011 10:33:02 9.7 C 8.11 g/m*3 9.7 C 0 km/h
774 09-06-2011 10:58:02 9.7 C 8.11 g/m*3 9.7 C 0 km/h
775 09-06-2011 11:10:03 9.7 C 8.11 g/m*3 9.7 C 0 km/h
Sensor: Nr:Datum:Temp:Abs-Feuchte:Windchill:Wind:
Aussen-T/F 776 09-06-2011 11:22:02 9.7 C 8.11 g/m*3 9.7 C 0 km/h
777 09-06-2011 11:34:02 9.7 C 8.11 g/m*3 9.7 C 0 km/h
778 09-06-2011 11:46:02 9.7 C 8.11 g/m*3 9.7 C 0 km/h
779 09-06-2011 11:58:02 18.6 C 6.37 g/m*3 18.6 C 0 km/h
780 09-06-2011 12:10:03 18.8 C 6.76 g/m*3 18.8 C 0 km/h
781 09-06-2011 12:22:03 18.3 C 6.1 g/m*3 18.3 C 0 km/h
782 09-06-2011 12:34:02 18.1 C 8.03 g/m*3 18.1 C 0 km/h
783 09-06-2011 12:46:02 20 C 6.91 g/m*3 20 C 0 km/h
784 09-06-2011 12:58:03 20.9 C 6.56 g/m*3 20.9 C 0 km/h
785 09-06-2011 13:10:01 20.9 C 6.19 g/m*3 20.9 C 0 km/h
786 09-06-2011 13:22:02 20.1 C 6.78 g/m*3 20.1 C 0 km/h
787 09-06-2011 13:34:02 20.1 C 6.61 g/m*3 20.1 C 0 km/h
788 09-06-2011 13:46:02 18.8 C 6.76 g/m*3 18.8 C 0 km/h
789 09-06-2011 13:58:02 17.1 C 7.57 g/m*3 17.1 C 0 km/h
790 09-06-2011 14:10:03 16.7 C 6.54 g/m*3 16.7 C 0 km/h
791 09-06-2011 14:22:02 16.2 C 7.58 g/m*3 16.2 C 0 km/h
792 09-06-2011 14:34:02 15.6 C 7.98 g/m*3 15.6 C 0 km/h
793 09-06-2011 14:46:01 15.5 C 8.06 g/m*3 15.5 C 0 km/h
794 09-06-2011 14:58:01 15.7 C 8.16 g/m*3 15.7 C 0 km/h
795 09-06-2011 15:10:02 16.2 C 8.14 g/m*3 16.2 C 0 km/h
796 09-06-2011 15:22:01 17 C 8.68 g/m*3 17 C 0 km/h
797 09-06-2011 15:34:01 17.3 C 8.25 g/m*3 17.3 C 0 km/h
798 09-06-2011 15:46:01 17.9 C 8.24 g/m*3 17.9 C 0 km/h
799 09-06-2011 15:58:01 18.2 C 8.39 g/m*3 18.2 C 0 km/h
800 09-06-2011 16:10:02 17.6 C 8.7 g/m*3 17.6 C 0 km/h
Sensor: Nr:Datum:Temp:Abs-Feuchte:Windchill:Wind:
Aussen-T/F 801 09-06-2011 16:22:01 17.2 C 8.35 g/m*3 17.2 C 0 km/h
802 09-06-2011 16:34:01 17.1 C 8.44 g/m*3 17.1 C 0 km/h
803 09-06-2011 16:46:01 16.8 C 9.01 g/m*3 16.8 C 0 km/h
804 09-06-2011 16:58:01 16.6 C 9.18 g/m*3 16.6 C 0 km/h
805 09-06-2011 17:10:01 16.5 C 8.99 g/m*3 16.5 C 0 km/h
806 09-06-2011 17:22:02 16.8 C 9.01 g/m*3 16.8 C 0 km/h
807 09-06-2011 17:34:01 16.8 C 9.01 g/m*3 16.8 C 0 km/h
808 09-06-2011 17:46:02 17.2 C 8.93 g/m*3 17.2 C 0 km/h
809 09-06-2011 17:58:02 17.8 C 8.8 g/m*3 17.8 C 0 km/h
810 09-06-2011 18:10:02 20.4 C 7.78 g/m*3 20.4 C 0 km/h
811 09-06-2011 18:22:02 21.3 C 6.9 g/m*3 21.3 C 0 km/h
812 09-06-2011 18:34:02 23.3 C 6.69 g/m*3 23.3 C 0 km/h
813 09-06-2011 18:46:02 22.2 C 5.5 g/m*3 22.2 C 0 km/h
814 09-06-2011 18:58:02 22.5 C 6.19 g/m*3 22.5 C 0 km/h
815 09-06-2011 19:10:01 22.3 C 7.5 g/m*3 22.3 C 0 km/h
816 09-06-2011 19:22:02 22.3 C 7.5 g/m*3 22.3 C 0 km/h
817 09-06-2011 19:34:02 22.3 C 7.5 g/m*3 22.3 C 0 km/h
818 09-06-2011 19:46:02 22.3 C 7.5 g/m*3 22.3 C 0 km/h
819 09-06-2011 19:58:02 22.3 C 7.5 g/m*3 22.3 C 0 km/h
820 09-06-2011 20:10:02 22.3 C 7.5 g/m*3 22.3 C 0 km/h
821 09-06-2011 20:22:02 22.3 C 7.5 g/m*3 22.3 C 0 km/h
822 09-06-2011 20:34:02 22.3 C 7.5 g/m*3 22.3 C 0 km/h
823 09-06-2011 20:46:02 22.3 C 7.5 g/m*3 22.3 C 0 km/h
824 09-06-2011 20:58:02 22.3 C 7.5 g/m*3 22.3 C 0 km/h
825 09-06-2011 21:10:02 13 C 9.3 g/m*3 13 C 0 km/h
Sensor: Nr:Datum:Temp:Abs-Feuchte:Windchill:Wind:
Aussen-T/F 826 09-06-2011 21:22:01 12.9 C 9.47 g/m*3 12.9 C 0 km/h
827 09-06-2011 21:34:02 12.9 C 9.58 g/m*3 12.9 C 0 km/h
828 09-06-2011 21:46:02 12.5 C 9.46 g/m*3 12.5 C 0 km/h
829 09-06-2011 21:58:02 12.4 C 9.4 g/m*3 12.4 C 0 km/h
830 09-06-2011 22:10:02 12.4 C 9.4 g/m*3 12.4 C 0 km/h
831 09-06-2011 22:22:01 11.5 C 8.99 g/m*3 11.5 C 0 km/h
832 09-06-2011 22:35:03 11.5 C 8.99 g/m*3 11.5 C 0 km/h
833 09-06-2011 22:47:03 11.4 C 8.93 g/m*3 11.4 C 0 km/h
834 09-06-2011 22:59:03 11.4 C 8.93 g/m*3 11.4 C 0 km/h
835 09-06-2011 23:11:03 11.4 C 8.93 g/m*3 11.4 C 0 km/h
836 09-06-2011 23:23:03 11.4 C 8.93 g/m*3 11.4 C 0 km/h
837 09-06-2011 23:35:03 11.4 C 8.93 g/m*3 11.4 C 0 km/h
838 09-06-2011 23:47:03 11.4 C 8.93 g/m*3 11.4 C 0 km/h
839 09-06-2011 23:59:03 11.4 C 8.93 g/m*3 11.4 C 0 km/h

Legende:
   Min
   Max


Maximal/Minimal-Werte vom 03.06.2011 - 09.06.2011

Sensor Min Max Avg
Temp
(Aussen-T/F)
8.6 °C
09-06-2011  06:45:02
33.2 °C
04-06-2011  14:04:02
18.48 °C
Abs-Feuchte
(Aussen-T/F)
5.06 g/m*3
08-06-2011  17:32:02
15.58 g/m*3
05-06-2011  14:29:01
9.56 g/m*3
Windchill
(Aussen-T/F)
8.6 C
09-06-2011  06:45:02
33.2 C
04-06-2011  14:04:02
18.45 C

Die Daten stammen von einer Davis Vantage Pro 2 Wetter-Station und werden unter Linux mit der Software wview2wettercgi und aufbereitet. Alle Angaben erfolgen ohne Gewähr für ihre Vollständigkeit oder Richtigkeit.
Kontakt: Rainer Krienke krienke@uni-koblenz.de . Meine Webseiten an der Uni Koblenz oder privat.
Version: $Revision: 0.78 $